Airfield :
LOGIN :

Register | Disclaimer

   EN    FR    IT 

 










Legend :    VFR   Marginal VFR   IFR   Intensive IFR   Very Intensive IFR
Visi :
Ceiling :
>= 8 km
>= 3000ft
5 to 8 km
1000 to 3000 ft
1500m to 5 km
500 to 1000 ft
800 to 1500m
200 to 500 ft
< 800m
< 200 ft
Symbols :   Thunderstorms  Fog  Heavy snow  Heavy precipitations  Wind > 20 kt
SIGMETs :     Misc.  Thunderstorms  Icing  Turbulence  Mountain Waves  Volcanic Ashes






- Airport Elevation : 84 ft


LFBC - Cazaux

CURRENT METAR :
  • 131200Z AUTO 24011KT 210V270 9999 4000 RA BKN011 OVC016 21/19 Q1016 TEMPO 24015G25KT 4000 RA BKN006 BKN020 BKN040TCU

EXPIRED METARs :
  • 131130Z AUTO 24013KT 9999 OVC013 21/19 Q1016 TEMPO 24015G25KT 4000 RA BKN006 BKN020 BKN040TCU
  • 131100Z AUTO 24014G24KT 210V270 9999 BKN013 OVC020 22/19 Q1016 TEMPO 4000 RA BKN006 BKN020 BKN040TCU
  • 131030Z AUTO 24015KT 9999 OVC016 22/19 Q1015 TEMPO 24015G25KT 4000 RA BKN006 BKN020 BKN040TCU
  • 131000Z AUTO 24012G24KT 210V280 9999 BKN015 BKN028 BKN110 21/19 Q1015 TEMPO 3000 TSRA BKN008 BKN020 BKN040CB
  • 130930Z AUTO 25014KT 9999 FEW012/// BKN018/// BKN026/// ///TCU 21/19 Q1015 TEMPO 24020G30KT 3000 TSRA BKN008 BKN020 BKN040CB
  • 130900Z AUTO 24009KT 200V270 9999 BKN009/// BKN017/// BKN026/// ///TCU 20/20 Q1015 TEMPO 24020G30KT 3000 TSRA BKN008 BKN020 BKN040CB

TAF TAF LFBC
Valid from the 13 at 09:00 until the 14 at 09:00 UTC


130800Z 1309/1409 24015KT 9999 BKN008 BKN014
TEMPO 1309/1313 24015G25KT 4000 RA BKN006 BKN020 BKN040TCU
PROB30
TEMPO 1309/1312 24020G30KT 3000 TSRA BKN008 BKN020 BKN040CB
BECMG 1310/1312 BKN020
BECMG 1316/1318 27005KT
PROB30
TEMPO 1402/1406 2000 MIFG



MET'MAP, your aeronautical weather chart ! - Copyright ORBIFLY December 2007 - Disclaimer

ORBIFLY MET'MAP TEAM :

Programming & Development : Alexandra Zaïnal
Concept & original design : Baudouin d'Aumeries
Assistance for programming : Marc-Olivier Méhu
Technical & hardware support : Manuel Goepfert

Contact : metmap@orbifly.com




SOURCES & CREDITS :

   NOAA